Terminal Aerodrome Forecast
Issued by NWS Binghamton, NY

Home | Current Version | Previous Version | Text Only | Print | Product List | Glossary On
Versions: 1 2 3 4 5 6 7 8 9 10 11 12 13 14 15 16
359
FTUS41 KBGM 030852 AAA
TAFSYR
TAF AMD
KSYR 030852Z 0309/0406 34003KT 3SM BR SCT003
      TEMPO 0309/0312 1SM BR SCT003
     FM031300 36004KT P6SM SCT050=

USA.gov is the U.S. government's official web portal to all federal, state and local government web resources and services.